createdAt,value
2022-10-05T00:00:00.124Z,98943.53
2022-10-05T00:02:26.919Z,98933.81
2022-10-05T00:04:56.907Z,98934.09
2022-10-05T00:07:24.566Z,98931.16
2022-10-05T00:09:57.174Z,98932.16
2022-10-05T00:12:25.340Z,98934.25
2022-10-05T00:14:55.383Z,98926.75
2022-10-05T00:17:24.402Z,98928.75
2022-10-05T00:19:54.705Z,98924.09
2022-10-05T00:22:30.259Z,98918.63
2022-10-05T00:24:59.937Z,98925.75
2022-10-05T00:27:32.770Z,98912.97
2022-10-05T00:30:02.688Z,98902.09
2022-10-05T00:32:29.085Z,98891.28
2022-10-05T00:34:57.328Z,98897.63
2022-10-05T00:37:23.751Z,98901.00
2022-10-05T00:39:50.215Z,98905.31
2022-10-05T00:42:34.612Z,98903.31
2022-10-05T00:45:07.300Z,98906.50
2022-10-05T00:48:01.484Z,98917.13
2022-10-05T00:50:54.007Z,98915.22
2022-10-05T00:53:39.903Z,98920.84
2022-10-05T00:56:09.305Z,98912.69
2022-10-05T00:58:48.091Z,98914.94
2022-10-05T01:01:27.148Z,98911.44
2022-10-05T01:04:10.276Z,98920.19
2022-10-05T01:06:55.060Z,98923.59
2022-10-05T01:09:49.856Z,98928.97
2022-10-05T01:13:03.554Z,98937.13
2022-10-05T01:15:43.119Z,98926.31
2022-10-05T01:18:25.157Z,98931.72
2022-10-05T01:21:10.614Z,98932.91
2022-10-05T01:23:55.385Z,98921.81
2022-10-05T01:26:40.517Z,98932.34
2022-10-05T01:29:25.008Z,98930.47
2022-10-05T01:32:33.555Z,98919.56
2022-10-05T01:35:32.802Z,98916.81
2022-10-05T01:38:31.072Z,98899.06
2022-10-05T01:41:39.291Z,98901.00
2022-10-05T01:44:15.628Z,98893.69
2022-10-05T01:46:52.165Z,98889.88
2022-10-05T01:49:37.611Z,98887.25
2022-10-05T01:52:33.226Z,98874.69
2022-10-05T01:55:20.522Z,98873.94
2022-10-05T01:58:06.364Z,98867.63
2022-10-05T02:00:55.469Z,98865.81
2022-10-05T02:03:30.799Z,98857.25
2022-10-05T02:06:10.093Z,98855.25
2022-10-05T02:08:58.838Z,98862.00
2022-10-05T02:11:25.819Z,98848.59
2022-10-05T02:13:59.216Z,98846.59
2022-10-05T02:16:34.695Z,98836.69
2022-10-05T02:19:23.301Z,98838.59
2022-10-05T02:21:54.746Z,98842.69
2022-10-05T02:24:29.760Z,98827.16
2022-10-05T02:26:57.367Z,98824.22
2022-10-05T02:29:29.753Z,98829.72
2022-10-05T02:32:01.810Z,98833.63
2022-10-05T02:34:37.146Z,98840.47
2022-10-05T02:37:15.458Z,98841.53
2022-10-05T02:40:12.372Z,98839.63
2022-10-05T02:42:41.656Z,98843.09
2022-10-05T02:45:27.456Z,98847.31
2022-10-05T02:48:19.155Z,98838.22
2022-10-05T02:51:09.482Z,98841.09
2022-10-05T02:54:13.582Z,98839.19
2022-10-05T02:57:02.391Z,98847.31
2022-10-05T02:59:31.700Z,98854.19
2022-10-05T03:02:29.332Z,98842.56
2022-10-05T03:05:12.690Z,98848.16
2022-10-05T03:08:06.933Z,98846.25
2022-10-05T03:10:43.409Z,98860.47
2022-10-05T03:13:24.386Z,98864.91
2022-10-05T03:16:20.352Z,98864.59
2022-10-05T03:19:11.415Z,98863.13
2022-10-05T03:21:56.597Z,98855.44
2022-10-05T03:24:42.791Z,98853.75
2022-10-05T03:27:22.877Z,98852.50
2022-10-05T03:30:19.666Z,98862.22
2022-10-05T03:32:55.145Z,98854.72
2022-10-05T03:35:33.117Z,98851.94
2022-10-05T03:37:59.484Z,98856.47
2022-10-05T03:40:32.628Z,98860.66
2022-10-05T03:43:37.457Z,98857.34
2022-10-05T03:46:13.720Z,98865.44
2022-10-05T03:48:47.417Z,98854.81
2022-10-05T03:51:28.414Z,98858.53
2022-10-05T03:53:59.836Z,98853.34
2022-10-05T03:56:45.938Z,98854.72
2022-10-05T03:59:22.784Z,98846.16
2022-10-05T04:01:57.446Z,98854.16
2022-10-05T04:04:28.169Z,98842.25
2022-10-05T04:06:56.182Z,98846.72
2022-10-05T04:09:32.976Z,98844.75
2022-10-05T04:12:32.939Z,98845.00
2022-10-05T04:15:02.928Z,98850.88
2022-10-05T04:18:05.299Z,98847.72
2022-10-05T04:20:49.202Z,98857.34
2022-10-05T04:23:15.521Z,98861.69
2022-10-05T04:26:01.141Z,98855.97
2022-10-05T04:29:01.655Z,98857.53
2022-10-05T04:31:40.219Z,98863.03
2022-10-05T04:34:27.280Z,98869.25
2022-10-05T04:37:03.365Z,98861.75
2022-10-05T04:39:50.205Z,98859.63
2022-10-05T04:42:44.412Z,98862.59
2022-10-05T04:45:42.586Z,98860.47
2022-10-05T04:48:20.925Z,98864.78
2022-10-05T04:51:05.610Z,98871.13
2022-10-05T04:53:42.243Z,98868.38
2022-10-05T04:56:20.293Z,98862.06
2022-10-05T04:59:15.276Z,98859.00
2022-10-05T05:01:47.732Z,98865.25
2022-10-05T05:04:35.716Z,98872.59
2022-10-05T05:07:27.135Z,98875.56
2022-10-05T05:10:12.434Z,98862.94
2022-10-05T05:13:02.209Z,98875.63
2022-10-05T05:15:37.523Z,98868.97
2022-10-05T05:18:46.184Z,98874.00
2022-10-05T05:21:21.555Z,98881.09
2022-10-05T05:23:57.606Z,98873.81
2022-10-05T05:26:38.791Z,98867.16
2022-10-05T05:29:08.247Z,98873.41
2022-10-05T05:31:55.616Z,98877.09
2022-10-05T05:34:38.685Z,98874.34
2022-10-05T05:37:13.751Z,98872.16
2022-10-05T05:40:03.477Z,98871.19
2022-10-05T05:42:52.210Z,98874.16
2022-10-05T05:45:41.836Z,98868.97
2022-10-05T05:48:35.798Z,98862.00
2022-10-05T05:51:21.236Z,98863.59
2022-10-05T05:53:52.395Z,98862.28
2022-10-05T05:56:34.584Z,98867.06
2022-10-05T05:59:27.031Z,98860.94
2022-10-05T06:02:05.540Z,98863.22
2022-10-05T06:04:38.453Z,98862.31
2022-10-05T06:07:06.115Z,98870.91
2022-10-05T06:09:39.276Z,98874.94
2022-10-05T06:12:28.152Z,98873.75
2022-10-05T06:15:00.328Z,98875.38
2022-10-05T06:17:45.247Z,98880.53
2022-10-05T06:20:25.509Z,98885.63
2022-10-05T06:22:52.571Z,98883.47
2022-10-05T06:25:38.473Z,98882.84
2022-10-05T06:28:13.090Z,98899.25
2022-10-05T06:31:03.715Z,98879.63
2022-10-05T06:33:45.263Z,98890.38
2022-10-05T06:36:49.001Z,98887.47
2022-10-05T06:39:36.460Z,98895.31
2022-10-05T06:42:31.043Z,98892.28
2022-10-05T06:45:14.991Z,98883.22
2022-10-05T06:47:54.824Z,98895.81
2022-10-05T06:50:42.237Z,98892.16
2022-10-05T06:53:14.618Z,98883.78
2022-10-05T06:55:52.102Z,98886.59
2022-10-05T06:58:30.842Z,98888.75
2022-10-05T07:01:11.199Z,98881.97
2022-10-05T07:04:09.777Z,98874.66
2022-10-05T07:06:57.042Z,98882.34
2022-10-05T07:09:43.087Z,98877.97
2022-10-05T07:12:18.168Z,98875.72
2022-10-05T07:14:50.658Z,98875.38
2022-10-05T07:17:24.608Z,98876.34
2022-10-05T07:20:04.313Z,98863.69
2022-10-05T07:22:55.229Z,98872.00
2022-10-05T07:25:28.825Z,98876.44
2022-10-05T07:28:04.645Z,98875.06
2022-10-05T07:30:41.279Z,98876.25
2022-10-05T07:33:15.926Z,98864.44
2022-10-05T07:36:20.061Z,98865.34
2022-10-05T07:38:59.603Z,98857.59
2022-10-05T07:41:47.717Z,98867.41
2022-10-05T07:44:37.395Z,98865.72
2022-10-05T07:47:42.185Z,98858.75
2022-10-05T07:50:23.905Z,98860.63
2022-10-05T07:52:56.460Z,98860.06
2022-10-05T07:55:26.621Z,98865.19
2022-10-05T07:58:00.246Z,98859.03
2022-10-05T08:00:45.468Z,98856.97
2022-10-05T08:03:23.660Z,98854.31
2022-10-05T08:05:50.296Z,98856.81
2022-10-05T08:08:47.935Z,98864.00
2022-10-05T08:11:24.192Z,98861.28
2022-10-05T08:14:16.709Z,98865.25
2022-10-05T08:16:46.574Z,98860.22
2022-10-05T08:19:25.939Z,98857.75
2022-10-05T08:21:58.321Z,98859.59
2022-10-05T08:24:51.624Z,98856.00
2022-10-05T08:27:39.896Z,98861.41
2022-10-05T08:30:10.893Z,98849.53
2022-10-05T08:33:01.357Z,98859.41
2022-10-05T08:35:44.256Z,98871.97
2022-10-05T08:38:16.624Z,98857.56
2022-10-05T08:41:07.958Z,98851.34
2022-10-05T08:43:49.626Z,98861.75
2022-10-05T08:46:33.508Z,98861.34
2022-10-05T08:49:35.055Z,98866.34
2022-10-05T08:52:38.531Z,98862.00
2022-10-05T08:55:22.910Z,98866.59
2022-10-05T08:58:17.255Z,98866.13
2022-10-05T09:01:27.029Z,98864.53
2022-10-05T09:04:15.067Z,98874.47
2022-10-05T09:07:06.110Z,98864.78
2022-10-05T09:10:06.375Z,98873.28
2022-10-05T09:12:59.324Z,98867.97
2022-10-05T09:16:07.717Z,98866.84
2022-10-05T09:18:49.840Z,98872.34
2022-10-05T09:21:41.882Z,98871.56
2022-10-05T09:24:14.119Z,98874.56
2022-10-05T09:26:40.630Z,98873.53
2022-10-05T09:29:25.779Z,98870.81
2022-10-05T09:32:16.499Z,98872.69
2022-10-05T09:34:53.626Z,98868.84
2022-10-05T09:37:35.127Z,98872.22
2022-10-05T09:40:13.578Z,98863.66
2022-10-05T09:43:04.415Z,98867.59
2022-10-05T09:45:40.074Z,98862.81
2022-10-05T09:48:27.201Z,98858.38
2022-10-05T09:51:01.364Z,98858.31
2022-10-05T09:53:49.091Z,98859.25
2022-10-05T09:56:52.895Z,98850.41
2022-10-05T09:59:36.776Z,98863.72
2022-10-05T10:02:09.735Z,98851.72
2022-10-05T10:05:04.083Z,98850.56
2022-10-05T10:07:50.179Z,98847.44
2022-10-05T10:10:43.859Z,98837.31
2022-10-05T10:13:37.931Z,98851.59
2022-10-05T10:16:30.500Z,98838.03
2022-10-05T10:19:12.617Z,98845.91
2022-10-05T10:22:10.807Z,98849.31
2022-10-05T10:24:58.405Z,98835.94
2022-10-05T10:27:42.938Z,98835.31
2022-10-05T10:30:28.430Z,98836.38
2022-10-05T10:33:04.254Z,98839.97
2022-10-05T10:35:37.768Z,98833.88
2022-10-05T10:38:23.644Z,98845.00
2022-10-05T10:40:56.294Z,98837.13
2022-10-05T10:43:58.687Z,98842.31
2022-10-05T10:46:53.150Z,98859.16
2022-10-05T10:49:53.243Z,98853.94
2022-10-05T10:52:31.703Z,98848.88
2022-10-05T10:55:26.138Z,98845.72
2022-10-05T11:01:11.297Z,98830.81
2022-10-05T11:03:49.790Z,98827.28
2022-10-05T11:06:33.504Z,98819.44
2022-10-05T11:09:12.547Z,98826.69
2022-10-05T11:11:58.484Z,98826.56
2022-10-05T11:14:42.954Z,98820.41
2022-10-05T11:17:25.262Z,98815.81
2022-10-05T11:20:04.004Z,98807.31
2022-10-05T11:22:31.384Z,98810.22
2022-10-05T11:25:09.962Z,98798.78
2022-10-05T11:28:20.722Z,98804.00
2022-10-05T11:30:51.243Z,98797.47
2022-10-05T11:33:54.932Z,98796.63
2022-10-05T11:36:46.085Z,98786.06
2022-10-05T11:39:55.489Z,98798.91
2022-10-05T11:42:27.862Z,98781.94
2022-10-05T11:45:23.483Z,98792.63
2022-10-05T11:47:49.807Z,98791.63
2022-10-05T11:50:19.206Z,98787.66
2022-10-05T11:53:07.202Z,98785.59
2022-10-05T11:56:01.335Z,98778.59
2022-10-05T11:58:50.267Z,98774.72
2022-10-05T12:01:43.803Z,98780.38
2022-10-05T12:05:07.293Z,98772.69
2022-10-05T12:07:58.636Z,98770.22
2022-10-05T12:10:42.472Z,98770.88
2022-10-05T12:13:29.483Z,98772.53
2022-10-05T12:16:13.150Z,98767.13
2022-10-05T12:18:45.607Z,98773.66
2022-10-05T12:21:43.842Z,98770.66
2022-10-05T12:24:27.154Z,98760.09
2022-10-05T12:27:07.410Z,98752.56
2022-10-05T12:29:42.782Z,98754.53
2022-10-05T12:32:21.466Z,98756.81
2022-10-05T12:35:01.494Z,98759.34
2022-10-05T12:37:41.179Z,98755.13
2022-10-05T12:40:25.049Z,98740.69
2022-10-05T12:43:12.413Z,98735.19
2022-10-05T12:46:02.667Z,98735.31
2022-10-05T12:48:49.186Z,98734.22
2022-10-05T12:51:27.871Z,98730.66
2022-10-05T12:54:13.519Z,98725.97
2022-10-05T12:56:52.047Z,98733.13
2022-10-05T12:59:52.688Z,98733.50
2022-10-05T13:02:31.895Z,98736.19
2022-10-05T13:05:03.987Z,98736.50
2022-10-05T13:07:52.182Z,98721.09
2022-10-05T13:10:39.287Z,98716.91
2022-10-05T13:13:21.693Z,98727.66
2022-10-05T13:16:00.103Z,98715.06
2022-10-05T13:18:26.511Z,98708.91
2022-10-05T13:21:03.941Z,98705.84
2022-10-05T13:24:01.415Z,98695.75
2022-10-05T13:26:40.887Z,98710.91
2022-10-05T13:29:28.908Z,98695.25
2022-10-05T13:32:03.901Z,98695.91
2022-10-05T13:34:43.546Z,98688.16
2022-10-05T13:37:31.950Z,98696.56
2022-10-05T13:40:17.824Z,98687.66
2022-10-05T13:42:55.480Z,98692.00
2022-10-05T13:45:24.869Z,98694.41
2022-10-05T13:48:23.181Z,98695.84
2022-10-05T13:51:19.032Z,98693.72
2022-10-05T13:53:53.160Z,98695.28
2022-10-05T13:56:29.172Z,98697.50
2022-10-05T13:59:14.390Z,98697.91
2022-10-05T14:01:45.888Z,98687.19
2022-10-05T14:04:20.978Z,98685.00
2022-10-05T14:06:48.873Z,98687.84
2022-10-05T14:09:29.032Z,98683.34
2022-10-05T14:12:12.183Z,98688.25
2022-10-05T14:14:58.512Z,98676.41
2022-10-05T14:17:43.330Z,98692.50
2022-10-05T14:20:28.171Z,98688.72
2022-10-05T14:23:19.750Z,98685.75
2022-10-05T14:25:54.058Z,98675.94
2022-10-05T14:28:31.460Z,98678.63
2022-10-05T14:31:03.848Z,98676.13
2022-10-05T14:33:33.537Z,98673.81
2022-10-05T14:36:00.062Z,98660.25
2022-10-05T14:38:29.713Z,98664.25
2022-10-05T14:41:08.039Z,98656.97
2022-10-05T14:43:35.258Z,98658.25
2022-10-05T14:46:23.245Z,98650.09
2022-10-05T14:49:13.415Z,98658.63
2022-10-05T14:51:42.106Z,98655.94
2022-10-05T14:54:35.759Z,98652.56
2022-10-05T14:57:22.434Z,98640.59
2022-10-05T15:00:07.310Z,98646.28
2022-10-05T15:03:08.726Z,98642.97
2022-10-05T15:05:55.646Z,98642.75
2022-10-05T15:08:31.232Z,98644.22
2022-10-05T15:11:07.583Z,98641.88
2022-10-05T15:13:43.604Z,98629.56
2022-10-05T15:16:24.878Z,98626.50
2022-10-05T15:19:03.318Z,98620.53
2022-10-05T15:21:42.352Z,98618.47
2022-10-05T15:24:22.313Z,98608.84
2022-10-05T15:26:56.265Z,98610.06
2022-10-05T15:29:51.215Z,98604.28
2022-10-05T15:32:24.748Z,98607.81
2022-10-05T15:35:20.629Z,98606.38
2022-10-05T15:37:57.723Z,98611.56
2022-10-05T15:40:37.264Z,98610.78
2022-10-05T15:43:11.557Z,98607.66
2022-10-05T15:45:51.711Z,98609.91
2022-10-05T15:48:29.035Z,98605.94
2022-10-05T15:51:01.672Z,98607.19
2022-10-05T15:53:43.382Z,98600.75
2022-10-05T15:56:27.760Z,98602.75
2022-10-05T15:58:59.851Z,98599.53
2022-10-05T16:01:32.321Z,98609.94
2022-10-05T16:04:52.561Z,98616.44
2022-10-05T16:07:50.995Z,98601.69
2022-10-05T16:10:21.461Z,98607.03
2022-10-05T16:13:04.318Z,98605.06
2022-10-05T16:15:43.030Z,98601.13
2022-10-05T16:18:34.057Z,98615.38
2022-10-05T16:21:29.307Z,98619.94
2022-10-05T16:24:33.619Z,98615.09
2022-10-05T16:27:10.308Z,98620.84
2022-10-05T16:29:50.546Z,98620.38
2022-10-05T16:32:30.474Z,98615.44
2022-10-05T16:35:02.634Z,98624.53
2022-10-05T16:37:46.099Z,98617.63
2022-10-05T16:40:38.257Z,98620.75
2022-10-05T16:43:19.672Z,98618.53
2022-10-05T16:46:12.338Z,98617.88
2022-10-05T16:49:21.115Z,98624.16
2022-10-05T16:52:01.644Z,98625.38
2022-10-05T16:54:38.262Z,98638.00
2022-10-05T16:57:20.041Z,98635.22
2022-10-05T16:59:55.359Z,98637.72
2022-10-05T17:02:34.011Z,98641.25
2022-10-05T17:05:12.304Z,98642.63
2022-10-05T17:07:58.293Z,98645.22
2022-10-05T17:10:40.191Z,98648.03
2022-10-05T17:13:37.299Z,98659.00
2022-10-05T17:16:25.170Z,98656.63
2022-10-05T17:19:19.150Z,98658.31
2022-10-05T17:21:55.456Z,98659.19
2022-10-05T17:24:32.669Z,98665.88
2022-10-05T17:27:17.776Z,98669.03
2022-10-05T17:29:47.610Z,98673.13
2022-10-05T17:32:16.732Z,98672.56
2022-10-05T17:35:01.207Z,98675.06
2022-10-05T17:37:35.519Z,98681.84
2022-10-05T17:40:29.745Z,98689.94
2022-10-05T17:43:01.202Z,98695.59
2022-10-05T17:45:33.550Z,98698.03
2022-10-05T17:48:10.081Z,98703.44
2022-10-05T17:51:13.030Z,98711.72
2022-10-05T17:54:01.376Z,98721.66
2022-10-05T17:56:28.347Z,98731.81
2022-10-05T17:58:54.923Z,98728.41
2022-10-05T18:01:32.496Z,98736.69
2022-10-05T18:04:13.869Z,98739.00
2022-10-05T18:07:01.523Z,98739.69
2022-10-05T18:09:33.018Z,98734.84
2022-10-05T18:12:17.870Z,98744.38
2022-10-05T18:14:56.366Z,98746.25
2022-10-05T18:17:45.283Z,98741.22
2022-10-05T18:20:23.779Z,98746.28
2022-10-05T18:22:53.330Z,98742.94
2022-10-05T18:25:26.125Z,98752.06
2022-10-05T18:28:19.211Z,98749.16
2022-10-05T18:31:16.395Z,98754.47
2022-10-05T18:33:55.235Z,98751.31
2022-10-05T18:36:44.407Z,98755.03
2022-10-05T18:39:38.227Z,98750.66
2022-10-05T18:42:20.854Z,98763.75
2022-10-05T18:44:55.566Z,98762.44
2022-10-05T18:47:37.209Z,98755.66
2022-10-05T18:50:46.409Z,98758.34
2022-10-05T18:53:15.797Z,98748.03
2022-10-05T18:55:49.219Z,98772.09
2022-10-05T18:58:26.446Z,98775.84
2022-10-05T19:01:26.775Z,98783.44
2022-10-05T19:04:08.491Z,98784.56
2022-10-05T19:07:01.843Z,98804.38
2022-10-05T19:10:10.977Z,98802.63
2022-10-05T19:13:07.215Z,98805.25
2022-10-05T19:15:59.054Z,98815.09
2022-10-05T19:18:42.060Z,98819.81
2022-10-05T19:21:34.399Z,98824.72
2022-10-05T19:24:33.716Z,98820.28
2022-10-05T19:27:37.490Z,98829.59
2022-10-05T19:30:22.989Z,98830.13
2022-10-05T19:33:23.326Z,98833.59
2022-10-05T19:36:13.419Z,98840.44
2022-10-05T19:39:05.812Z,98827.44
2022-10-05T19:41:41.029Z,98839.41
2022-10-05T19:44:29.399Z,98846.13
2022-10-05T19:47:01.113Z,98850.47
2022-10-05T19:49:51.817Z,98856.63
2022-10-05T19:52:28.410Z,98853.47
2022-10-05T19:55:26.287Z,98859.59
2022-10-05T19:57:55.245Z,98864.81
2022-10-05T20:00:25.527Z,98863.50
2022-10-05T20:03:09.080Z,98875.19
2022-10-05T20:05:35.655Z,98879.28
2022-10-05T20:08:03.485Z,98881.72
2022-10-05T20:10:30.799Z,98887.84
2022-10-05T20:13:00.661Z,98882.47
2022-10-05T20:15:47.307Z,98883.63
2022-10-05T20:19:02.912Z,98897.59
2022-10-05T20:21:39.447Z,98899.47
2022-10-05T20:24:17.486Z,98897.47
2022-10-05T20:27:03.372Z,98900.69
2022-10-05T20:29:37.610Z,98898.63
2022-10-05T20:32:12.818Z,98910.69
2022-10-05T20:34:41.618Z,98910.03
2022-10-05T20:37:12.966Z,98917.34
2022-10-05T20:39:40.395Z,98928.41
2022-10-05T20:42:08.243Z,98923.88
2022-10-05T20:44:37.007Z,98925.72
2022-10-05T20:47:04.612Z,98923.69
2022-10-05T20:49:31.816Z,98927.59
2022-10-05T20:51:59.042Z,98930.84
2022-10-05T20:54:26.818Z,98934.38
2022-10-05T20:56:55.653Z,98926.59
2022-10-05T20:59:23.563Z,98921.09
2022-10-05T21:01:50.544Z,98924.44
2022-10-05T21:04:30.203Z,98923.06
2022-10-05T21:07:02.647Z,98930.13
2022-10-05T21:09:29.977Z,98933.47
2022-10-05T21:11:56.362Z,98935.19
2022-10-05T21:14:23.850Z,98953.91
2022-10-05T21:16:51.243Z,98950.81
2022-10-05T21:19:17.650Z,98944.13
2022-10-05T21:21:45.660Z,98951.13
2022-10-05T21:24:14.263Z,98950.78
2022-10-05T21:26:41.995Z,98950.38
2022-10-05T21:29:12.531Z,98958.47
2022-10-05T21:31:39.748Z,98953.59
2022-10-05T21:34:06.397Z,98954.09
2022-10-05T21:36:33.084Z,98960.53
2022-10-05T21:38:59.657Z,98971.56
2022-10-05T21:41:26.532Z,98962.19
2022-10-05T21:43:53.221Z,98969.28
2022-10-05T21:46:22.824Z,98978.19
2022-10-05T21:48:49.799Z,98975.16
2022-10-05T21:51:18.777Z,98974.13
2022-10-05T21:53:56.585Z,98980.00
2022-10-05T21:56:27.973Z,98983.84
2022-10-05T21:58:54.567Z,98982.72
2022-10-05T22:01:22.774Z,98978.16
2022-10-05T22:03:49.786Z,98979.56
2022-10-05T22:06:16.421Z,98981.75
2022-10-05T22:08:43.147Z,98981.94
2022-10-05T22:11:15.345Z,98983.94
2022-10-05T22:13:45.466Z,98983.94
2022-10-05T22:16:12.981Z,98995.22
2022-10-05T22:18:40.009Z,98992.72
2022-10-05T22:21:07.937Z,99004.25
2022-10-05T22:23:35.851Z,98997.88
2022-10-05T22:26:03.912Z,99005.31
2022-10-05T22:28:32.606Z,98996.19
2022-10-05T22:31:02.975Z,98999.88
2022-10-05T22:33:29.639Z,98994.69
2022-10-05T22:35:58.820Z,99002.31
2022-10-05T22:38:25.768Z,99002.19
2022-10-05T22:40:52.337Z,99002.50
2022-10-05T22:43:18.719Z,99013.13
2022-10-05T22:45:45.188Z,99022.16
2022-10-05T22:48:11.884Z,99020.25
2022-10-05T22:50:38.232Z,99024.59
2022-10-05T22:53:04.646Z,99027.94
2022-10-05T22:55:31.092Z,99028.47
2022-10-05T22:57:57.443Z,99027.25
2022-10-05T23:00:35.147Z,99019.09
2022-10-05T23:03:10.160Z,99030.91
2022-10-05T23:05:36.517Z,99027.53
2022-10-05T23:08:02.963Z,99037.47
2022-10-05T23:10:29.481Z,99039.00
2022-10-05T23:13:00.558Z,99040.53
2022-10-05T23:15:27.471Z,99044.56
2022-10-05T23:17:55.945Z,99050.38
2022-10-05T23:20:24.504Z,99058.97
2022-10-05T23:22:50.882Z,99046.78
2022-10-05T23:25:17.801Z,99053.31
2022-10-05T23:27:44.231Z,99048.28
2022-10-05T23:30:11.795Z,99053.13
2022-10-05T23:32:40.543Z,99048.13
2022-10-05T23:35:09.261Z,99049.81
2022-10-05T23:37:43.739Z,99049.63
2022-10-05T23:40:13.155Z,99049.19
2022-10-05T23:42:40.593Z,99048.16
2022-10-05T23:45:08.734Z,99046.19
2022-10-05T23:47:35.289Z,99033.41
2022-10-05T23:50:02.168Z,99028.88
2022-10-05T23:52:28.637Z,99031.91
2022-10-05T23:54:55.063Z,99031.72
2022-10-05T23:57:21.537Z,99038.09
2022-10-05T23:59:50.186Z,99037.94
